sensor_id;sensor_type;location;lat;lon;timestamp;temperature;humidity
4615;DHT22;2320;51.362;6.946;2023-03-01T00:01:28;-1.50;99.90
4615;DHT22;2320;51.362;6.946;2023-03-01T00:03:54;-1.60;99.90
4615;DHT22;2320;51.362;6.946;2023-03-01T00:06:20;-1.60;99.90
4615;DHT22;2320;51.362;6.946;2023-03-01T00:08:45;-1.50;99.90
4615;DHT22;2320;51.362;6.946;2023-03-01T00:11:15;-1.60;99.90
4615;DHT22;2320;51.362;6.946;2023-03-01T00:13:42;-1.60;99.90
4615;DHT22;2320;51.362;6.946;2023-03-01T00:16:08;-1.60;99.90
4615;DHT22;2320;51.362;6.946;2023-03-01T00:18:34;-1.60;99.90
4615;DHT22;2320;51.362;6.946;2023-03-01T00:20:59;-1.70;99.90
4615;DHT22;2320;51.362;6.946;2023-03-01T00:23:25;-1.80;99.90
4615;DHT22;2320;51.362;6.946;2023-03-01T00:25:50;-1.70;99.90
4615;DHT22;2320;51.362;6.946;2023-03-01T00:28:16;-1.60;99.90
4615;DHT22;2320;51.362;6.946;2023-03-01T00:30:42;-1.70;99.90
4615;DHT22;2320;51.362;6.946;2023-03-01T00:33:07;-1.90;99.90
4615;DHT22;2320;51.362;6.946;2023-03-01T00:35:33;-1.80;99.90
4615;DHT22;2320;51.362;6.946;2023-03-01T00:37:58;-1.60;99.90
4615;DHT22;2320;51.362;6.946;2023-03-01T00:40:24;-1.80;99.90
4615;DHT22;2320;51.362;6.946;2023-03-01T00:42:50;-1.80;99.90
4615;DHT22;2320;51.362;6.946;2023-03-01T00:45:15;-1.80;99.90
4615;DHT22;2320;51.362;6.946;2023-03-01T00:47:41;-1.80;99.90
4615;DHT22;2320;51.362;6.946;2023-03-01T00:50:06;-1.80;99.90
4615;DHT22;2320;51.362;6.946;2023-03-01T00:52:32;-1.80;99.90
4615;DHT22;2320;51.362;6.946;2023-03-01T00:54:57;-1.80;99.90
4615;DHT22;2320;51.362;6.946;2023-03-01T00:57:23;-2.00;99.90
4615;DHT22;2320;51.362;6.946;2023-03-01T00:59:48;-2.10;99.90
4615;DHT22;2320;51.362;6.946;2023-03-01T01:02:14;-1.90;99.90
4615;DHT22;2320;51.362;6.946;2023-03-01T01:04:40;-1.90;99.90
4615;DHT22;2320;51.362;6.946;2023-03-01T01:07:05;-2.00;99.90
4615;DHT22;2320;51.362;6.946;2023-03-01T01:09:31;-2.20;99.90
4615;DHT22;2320;51.362;6.946;2023-03-01T01:11:56;-2.00;99.90
4615;DHT22;2320;51.362;6.946;2023-03-01T01:14:22;-1.80;99.90
4615;DHT22;2320;51.362;6.946;2023-03-01T01:16:47;-1.90;99.90
4615;DHT22;2320;51.362;6.946;2023-03-01T01:19:13;-1.70;99.90
4615;DHT22;2320;51.362;6.946;2023-03-01T01:21:39;-1.80;99.90
4615;DHT22;2320;51.362;6.946;2023-03-01T01:24:05;-2.00;99.90
4615;DHT22;2320;51.362;6.946;2023-03-01T01:26:32;-1.90;99.90
4615;DHT22;2320;51.362;6.946;2023-03-01T01:28:58;-1.80;99.90
4615;DHT22;2320;51.362;6.946;2023-03-01T01:31:23;-1.80;99.90
4615;DHT22;2320;51.362;6.946;2023-03-01T01:33:49;-1.90;99.90
4615;DHT22;2320;51.362;6.946;2023-03-01T01:36:15;-1.90;99.90
4615;DHT22;2320;51.362;6.946;2023-03-01T01:38:41;-2.10;99.90
4615;DHT22;2320;51.362;6.946;2023-03-01T01:41:07;-2.10;99.90
4615;DHT22;2320;51.362;6.946;2023-03-01T01:43:34;-2.10;99.90
4615;DHT22;2320;51.362;6.946;2023-03-01T01:46:06;-2.10;99.90
4615;DHT22;2320;51.362;6.946;2023-03-01T01:48:39;-2.10;99.90
4615;DHT22;2320;51.362;6.946;2023-03-01T01:51:07;-2.10;99.90
4615;DHT22;2320;51.362;6.946;2023-03-01T01:53:34;-2.30;99.90
4615;DHT22;2320;51.362;6.946;2023-03-01T01:56:00;-2.30;99.90
4615;DHT22;2320;51.362;6.946;2023-03-01T01:58:26;-2.10;99.90
4615;DHT22;2320;51.362;6.946;2023-03-01T02:00:53;-2.10;99.90
4615;DHT22;2320;51.362;6.946;2023-03-01T02:03:26;-2.10;99.90
4615;DHT22;2320;51.362;6.946;2023-03-01T02:06:04;-2.20;99.90
4615;DHT22;2320;51.362;6.946;2023-03-01T02:08:32;-2.20;99.90
4615;DHT22;2320;51.362;6.946;2023-03-01T02:10:58;-2.10;99.90
4615;DHT22;2320;51.362;6.946;2023-03-01T02:13:25;-2.20;99.90
4615;DHT22;2320;51.362;6.946;2023-03-01T02:15:50;-2.30;99.90
4615;DHT22;2320;51.362;6.946;2023-03-01T02:18:16;-2.50;99.90
4615;DHT22;2320;51.362;6.946;2023-03-01T02:23:08;-2.60;99.90
4615;DHT22;2320;51.362;6.946;2023-03-01T02:30:31;-2.60;99.90
4615;DHT22;2320;51.362;6.946;2023-03-01T02:32:57;-2.60;99.90
4615;DHT22;2320;51.362;6.946;2023-03-01T02:35:28;-2.70;99.90
4615;DHT22;2320;51.362;6.946;2023-03-01T02:37:55;-2.70;99.90
4615;DHT22;2320;51.362;6.946;2023-03-01T02:40:22;-2.60;99.90
4615;DHT22;2320;51.362;6.946;2023-03-01T02:42:52;-2.60;99.90
4615;DHT22;2320;51.362;6.946;2023-03-01T02:45:19;-2.50;99.90
4615;DHT22;2320;51.362;6.946;2023-03-01T02:47:44;-2.40;99.90
4615;DHT22;2320;51.362;6.946;2023-03-01T02:50:22;-2.40;99.90
4615;DHT22;2320;51.362;6.946;2023-03-01T02:53:10;-2.50;99.90
4615;DHT22;2320;51.362;6.946;2023-03-01T02:55:37;-2.50;99.90
4615;DHT22;2320;51.362;6.946;2023-03-01T02:58:04;-2.50;99.90
4615;DHT22;2320;51.362;6.946;2023-03-01T03:00:36;-2.60;99.90
4615;DHT22;2320;51.362;6.946;2023-03-01T03:03:04;-2.70;99.90
4615;DHT22;2320;51.362;6.946;2023-03-01T03:05:30;-2.80;99.90
4615;DHT22;2320;51.362;6.946;2023-03-01T03:07:57;-2.80;99.90
4615;DHT22;2320;51.362;6.946;2023-03-01T03:10:26;-2.90;99.90
4615;DHT22;2320;51.362;6.946;2023-03-01T03:12:53;-2.90;99.90
4615;DHT22;2320;51.362;6.946;2023-03-01T03:15:19;-2.90;99.90
4615;DHT22;2320;51.362;6.946;2023-03-01T03:17:45;-3.00;99.90
4615;DHT22;2320;51.362;6.946;2023-03-01T03:20:12;-2.90;99.90
4615;DHT22;2320;51.362;6.946;2023-03-01T03:22:38;-2.90;99.90
4615;DHT22;2320;51.362;6.946;2023-03-01T03:25:05;-3.10;99.90
4615;DHT22;2320;51.362;6.946;2023-03-01T03:27:30;-2.80;99.90
4615;DHT22;2320;51.362;6.946;2023-03-01T03:29:57;-2.90;99.90
4615;DHT22;2320;51.362;6.946;2023-03-01T03:32:22;-2.90;99.90
4615;DHT22;2320;51.362;6.946;2023-03-01T03:34:48;-2.90;99.90
4615;DHT22;2320;51.362;6.946;2023-03-01T03:37:14;-2.90;99.90
4615;DHT22;2320;51.362;6.946;2023-03-01T03:39:59;-3.00;99.90
4615;DHT22;2320;51.362;6.946;2023-03-01T03:42:25;-2.90;99.90
4615;DHT22;2320;51.362;6.946;2023-03-01T03:44:50;-2.90;99.90
4615;DHT22;2320;51.362;6.946;2023-03-01T03:47:16;-3.10;99.90
4615;DHT22;2320;51.362;6.946;2023-03-01T03:49:41;-3.00;99.90
4615;DHT22;2320;51.362;6.946;2023-03-01T03:52:06;-2.90;99.90
4615;DHT22;2320;51.362;6.946;2023-03-01T03:54:41;-3.00;99.90
4615;DHT22;2320;51.362;6.946;2023-03-01T03:57:07;-2.80;99.90
4615;DHT22;2320;51.362;6.946;2023-03-01T03:59:32;-2.80;99.90
4615;DHT22;2320;51.362;6.946;2023-03-01T04:01:58;-2.70;99.90
4615;DHT22;2320;51.362;6.946;2023-03-01T04:04:23;-2.70;99.90
4615;DHT22;2320;51.362;6.946;2023-03-01T04:06:49;-2.60;99.90
4615;DHT22;2320;51.362;6.946;2023-03-01T04:09:14;-2.60;99.90
4615;DHT22;2320;51.362;6.946;2023-03-01T04:11:39;-2.60;99.90
4615;DHT22;2320;51.362;6.946;2023-03-01T04:14:05;-2.80;99.90
4615;DHT22;2320;51.362;6.946;2023-03-01T04:16:30;-2.80;99.90
4615;DHT22;2320;51.362;6.946;2023-03-01T04:18:56;-2.70;99.90
4615;DHT22;2320;51.362;6.946;2023-03-01T04:21:24;-2.60;99.90
4615;DHT22;2320;51.362;6.946;2023-03-01T04:23:50;-2.60;99.90
4615;DHT22;2320;51.362;6.946;2023-03-01T04:26:18;-2.90;99.90
4615;DHT22;2320;51.362;6.946;2023-03-01T04:28:44;-3.00;99.90
4615;DHT22;2320;51.362;6.946;2023-03-01T04:31:12;-3.10;99.90
4615;DHT22;2320;51.362;6.946;2023-03-01T04:33:45;-3.00;99.90
4615;DHT22;2320;51.362;6.946;2023-03-01T04:36:11;-3.00;99.90
4615;DHT22;2320;51.362;6.946;2023-03-01T04:38:37;-3.10;99.90
4615;DHT22;2320;51.362;6.946;2023-03-01T04:41:04;-3.00;99.90
4615;DHT22;2320;51.362;6.946;2023-03-01T04:43:30;-2.80;99.90
4615;DHT22;2320;51.362;6.946;2023-03-01T04:45:59;-2.80;99.90
4615;DHT22;2320;51.362;6.946;2023-03-01T04:48:25;-2.70;99.90
4615;DHT22;2320;51.362;6.946;2023-03-01T04:50:50;-2.70;99.90
4615;DHT22;2320;51.362;6.946;2023-03-01T04:53:15;-2.80;99.90
4615;DHT22;2320;51.362;6.946;2023-03-01T04:55:41;-2.80;99.90
4615;DHT22;2320;51.362;6.946;2023-03-01T04:58:06;-2.80;99.90
4615;DHT22;2320;51.362;6.946;2023-03-01T05:00:32;-3.00;99.90
4615;DHT22;2320;51.362;6.946;2023-03-01T05:02:59;-2.80;99.90
4615;DHT22;2320;51.362;6.946;2023-03-01T05:05:30;-2.80;99.90
4615;DHT22;2320;51.362;6.946;2023-03-01T05:07:57;-2.70;99.90
4615;DHT22;2320;51.362;6.946;2023-03-01T05:10:23;-2.70;99.90
4615;DHT22;2320;51.362;6.946;2023-03-01T05:12:49;-2.70;99.90
4615;DHT22;2320;51.362;6.946;2023-03-01T05:15:14;-2.80;99.90
4615;DHT22;2320;51.362;6.946;2023-03-01T05:17:40;-2.90;99.90
4615;DHT22;2320;51.362;6.946;2023-03-01T05:20:05;-2.90;99.90
4615;DHT22;2320;51.362;6.946;2023-03-01T05:22:34;-2.70;99.90
4615;DHT22;2320;51.362;6.946;2023-03-01T05:24:59;-2.60;99.90
4615;DHT22;2320;51.362;6.946;2023-03-01T05:27:25;-2.60;99.90
4615;DHT22;2320;51.362;6.946;2023-03-01T05:29:50;-2.70;99.90
4615;DHT22;2320;51.362;6.946;2023-03-01T05:32:16;-2.80;99.90
4615;DHT22;2320;51.362;6.946;2023-03-01T05:34:41;-2.80;99.90
4615;DHT22;2320;51.362;6.946;2023-03-01T05:37:07;-3.00;99.90
4615;DHT22;2320;51.362;6.946;2023-03-01T05:39:33;-3.10;99.90
4615;DHT22;2320;51.362;6.946;2023-03-01T05:41:59;-3.10;99.90
4615;DHT22;2320;51.362;6.946;2023-03-01T05:44:29;-2.90;99.90
4615;DHT22;2320;51.362;6.946;2023-03-01T05:46:54;-2.90;99.90
4615;DHT22;2320;51.362;6.946;2023-03-01T05:49:20;-2.90;99.90
4615;DHT22;2320;51.362;6.946;2023-03-01T05:51:49;-2.90;99.90
4615;DHT22;2320;51.362;6.946;2023-03-01T05:54:14;-2.80;99.90
4615;DHT22;2320;51.362;6.946;2023-03-01T05:56:40;-2.70;99.90
4615;DHT22;2320;51.362;6.946;2023-03-01T05:59:05;-2.60;99.90
4615;DHT22;2320;51.362;6.946;2023-03-01T06:01:32;-2.60;99.90
4615;DHT22;2320;51.362;6.946;2023-03-01T06:03:57;-2.60;99.90
4615;DHT22;2320;51.362;6.946;2023-03-01T06:06:23;-2.60;99.90
4615;DHT22;2320;51.362;6.946;2023-03-01T06:08:49;-2.60;99.90
4615;DHT22;2320;51.362;6.946;2023-03-01T06:11:15;-2.70;99.90
4615;DHT22;2320;51.362;6.946;2023-03-01T06:13:41;-2.80;99.90
4615;DHT22;2320;51.362;6.946;2023-03-01T06:16:06;-2.80;99.90
4615;DHT22;2320;51.362;6.946;2023-03-01T06:18:32;-2.80;99.90
4615;DHT22;2320;51.362;6.946;2023-03-01T06:20:58;-2.70;99.90
4615;DHT22;2320;51.362;6.946;2023-03-01T06:23:23;-2.70;99.90
4615;DHT22;2320;51.362;6.946;2023-03-01T06:25:49;-2.60;99.90
4615;DHT22;2320;51.362;6.946;2023-03-01T06:28:14;-2.70;99.90
4615;DHT22;2320;51.362;6.946;2023-03-01T06:30:40;-2.70;99.90
4615;DHT22;2320;51.362;6.946;2023-03-01T06:33:05;-2.70;99.90
4615;DHT22;2320;51.362;6.946;2023-03-01T06:35:31;-2.60;99.90
4615;DHT22;2320;51.362;6.946;2023-03-01T06:37:56;-2.70;99.90
4615;DHT22;2320;51.362;6.946;2023-03-01T06:40:22;-2.50;99.90
4615;DHT22;2320;51.362;6.946;2023-03-01T06:42:48;-2.50;99.90
4615;DHT22;2320;51.362;6.946;2023-03-01T06:45:14;-2.50;99.90
4615;DHT22;2320;51.362;6.946;2023-03-01T06:47:40;-2.50;99.90
4615;DHT22;2320;51.362;6.946;2023-03-01T06:50:05;-2.40;99.90
4615;DHT22;2320;51.362;6.946;2023-03-01T06:52:31;-2.00;99.90
4615;DHT22;2320;51.362;6.946;2023-03-01T06:54:56;-1.50;99.90
4615;DHT22;2320;51.362;6.946;2023-03-01T06:57:22;-1.10;99.90
4615;DHT22;2320;51.362;6.946;2023-03-01T06:59:47;-0.70;99.90
4615;DHT22;2320;51.362;6.946;2023-03-01T07:02:13;-0.30;99.90
4615;DHT22;2320;51.362;6.946;2023-03-01T07:04:39;0.00;99.90
4615;DHT22;2320;51.362;6.946;2023-03-01T07:07:04;-0.20;99.90
4615;DHT22;2320;51.362;6.946;2023-03-01T07:09:30;-0.10;99.90
4615;DHT22;2320;51.362;6.946;2023-03-01T07:11:55;0.10;99.90
4615;DHT22;2320;51.362;6.946;2023-03-01T07:14:21;0.20;99.90
4615;DHT22;2320;51.362;6.946;2023-03-01T07:16:46;0.70;99.90
4615;DHT22;2320;51.362;6.946;2023-03-01T07:19:12;1.50;99.90
4615;DHT22;2320;51.362;6.946;2023-03-01T07:21:37;2.20;99.90
4615;DHT22;2320;51.362;6.946;2023-03-01T07:24:05;3.00;99.90
4615;DHT22;2320;51.362;6.946;2023-03-01T07:26:31;3.60;99.90
4615;DHT22;2320;51.362;6.946;2023-03-01T07:28:58;4.00;99.90
4615;DHT22;2320;51.362;6.946;2023-03-01T07:31:24;4.40;99.90
4615;DHT22;2320;51.362;6.946;2023-03-01T07:33:50;4.90;99.90
4615;DHT22;2320;51.362;6.946;2023-03-01T07:36:15;5.40;99.90
4615;DHT22;2320;51.362;6.946;2023-03-01T07:38:41;5.50;99.90
4615;DHT22;2320;51.362;6.946;2023-03-01T07:41:06;5.50;99.90
4615;DHT22;2320;51.362;6.946;2023-03-01T07:43:32;5.90;99.90
4615;DHT22;2320;51.362;6.946;2023-03-01T07:45:58;6.30;99.90
4615;DHT22;2320;51.362;6.946;2023-03-01T07:48:23;7.00;99.90
4615;DHT22;2320;51.362;6.946;2023-03-01T07:50:49;7.40;99.90
4615;DHT22;2320;51.362;6.946;2023-03-01T07:53:14;7.50;99.90
4615;DHT22;2320;51.362;6.946;2023-03-01T07:55:40;8.10;99.90
4615;DHT22;2320;51.362;6.946;2023-03-01T07:58:05;8.70;99.90
4615;DHT22;2320;51.362;6.946;2023-03-01T08:00:31;9.00;99.90
4615;DHT22;2320;51.362;6.946;2023-03-01T08:02:58;9.20;99.90
4615;DHT22;2320;51.362;6.946;2023-03-01T08:05:24;9.80;99.90
4615;DHT22;2320;51.362;6.946;2023-03-01T08:07:49;10.00;99.90
4615;DHT22;2320;51.362;6.946;2023-03-01T08:10:14;10.20;99.90
4615;DHT22;2320;51.362;6.946;2023-03-01T08:12:40;10.30;99.90
4615;DHT22;2320;51.362;6.946;2023-03-01T08:15:07;10.50;99.90
4615;DHT22;2320;51.362;6.946;2023-03-01T08:17:33;11.10;99.90
4615;DHT22;2320;51.362;6.946;2023-03-01T08:19:58;11.80;99.10
4615;DHT22;2320;51.362;6.946;2023-03-01T08:22:24;11.40;98.50
4615;DHT22;2320;51.362;6.946;2023-03-01T08:24:50;12.30;99.90
4615;DHT22;2320;51.362;6.946;2023-03-01T08:27:16;12.80;95.90
4615;DHT22;2320;51.362;6.946;2023-03-01T08:29:41;12.70;93.70
4615;DHT22;2320;51.362;6.946;2023-03-01T08:32:06;11.90;93.20
4615;DHT22;2320;51.362;6.946;2023-03-01T08:34:32;11.50;93.00
4615;DHT22;2320;51.362;6.946;2023-03-01T08:37:00;10.90;94.80
4615;DHT22;2320;51.362;6.946;2023-03-01T08:39:26;10.50;95.20
4615;DHT22;2320;51.362;6.946;2023-03-01T08:41:52;9.40;96.10
4615;DHT22;2320;51.362;6.946;2023-03-01T08:44:17;9.40;97.80
4615;DHT22;2320;51.362;6.946;2023-03-01T08:46:43;9.40;98.80
4615;DHT22;2320;51.362;6.946;2023-03-01T08:49:11;9.30;98.10
4615;DHT22;2320;51.362;6.946;2023-03-01T08:51:37;9.20;98.30
4615;DHT22;2320;51.362;6.946;2023-03-01T08:54:06;9.30;98.60
4615;DHT22;2320;51.362;6.946;2023-03-01T08:56:32;8.90;98.60
4615;DHT22;2320;51.362;6.946;2023-03-01T08:58:57;8.90;99.60
4615;DHT22;2320;51.362;6.946;2023-03-01T09:01:23;8.50;99.40
4615;DHT22;2320;51.362;6.946;2023-03-01T09:03:48;8.80;99.70
4615;DHT22;2320;51.362;6.946;2023-03-01T09:06:14;9.00;98.20
4615;DHT22;2320;51.362;6.946;2023-03-01T09:08:40;8.50;99.90
4615;DHT22;2320;51.362;6.946;2023-03-01T09:11:07;9.20;99.80
4615;DHT22;2320;51.362;6.946;2023-03-01T09:13:32;9.20;98.30
4615;DHT22;2320;51.362;6.946;2023-03-01T09:15:58;9.20;97.60
4615;DHT22;2320;51.362;6.946;2023-03-01T09:18:24;8.90;97.60
4615;DHT22;2320;51.362;6.946;2023-03-01T09:20:49;8.60;99.90
4615;DHT22;2320;51.362;6.946;2023-03-01T09:23:15;8.80;98.80
4615;DHT22;2320;51.362;6.946;2023-03-01T09:25:40;9.10;98.70
4615;DHT22;2320;51.362;6.946;2023-03-01T09:28:06;9.10;97.10
4615;DHT22;2320;51.362;6.946;2023-03-01T09:30:31;8.90;97.80
4615;DHT22;2320;51.362;6.946;2023-03-01T09:32:57;9.50;98.10
4615;DHT22;2320;51.362;6.946;2023-03-01T09:35:22;9.70;97.00
4615;DHT22;2320;51.362;6.946;2023-03-01T09:37:48;9.70;96.70
4615;DHT22;2320;51.362;6.946;2023-03-01T09:40:19;9.80;96.20
4615;DHT22;2320;51.362;6.946;2023-03-01T09:42:46;9.10;96.10
4615;DHT22;2320;51.362;6.946;2023-03-01T09:45:16;9.40;97.00
4615;DHT22;2320;51.362;6.946;2023-03-01T09:47:46;9.80;96.40
4615;DHT22;2320;51.362;6.946;2023-03-01T09:50:12;10.20;95.00
4615;DHT22;2320;51.362;6.946;2023-03-01T09:55:29;10.50;94.30
4615;DHT22;2320;51.362;6.946;2023-03-01T09:57:59;10.50;94.40
4615;DHT22;2320;51.362;6.946;2023-03-01T10:00:30;10.80;93.60
4615;DHT22;2320;51.362;6.946;2023-03-01T10:03:08;10.90;92.20
4615;DHT22;2320;51.362;6.946;2023-03-01T10:06:19;10.10;91.30
4615;DHT22;2320;51.362;6.946;2023-03-01T10:08:33;9.30;94.10
4615;DHT22;2320;51.362;6.946;2023-03-01T10:11:02;8.60;96.30
4615;DHT22;2320;51.362;6.946;2023-03-01T10:13:41;7.80;97.60
4615;DHT22;2320;51.362;6.946;2023-03-01T10:19:14;6.50;99.90
4615;DHT22;2320;51.362;6.946;2023-03-01T10:21:44;6.30;99.90
4615;DHT22;2320;51.362;6.946;2023-03-01T10:24:14;6.00;99.90
4615;DHT22;2320;51.362;6.946;2023-03-01T10:29:06;5.70;99.90
4615;DHT22;2320;51.362;6.946;2023-03-01T10:31:36;5.70;99.90
4615;DHT22;2320;51.362;6.946;2023-03-01T10:34:10;5.60;99.90
4615;DHT22;2320;51.362;6.946;2023-03-01T10:36:35;5.70;99.90
4615;DHT22;2320;51.362;6.946;2023-03-01T10:39:03;5.70;99.90
4615;DHT22;2320;51.362;6.946;2023-03-01T10:41:35;5.70;99.90
4615;DHT22;2320;51.362;6.946;2023-03-01T10:44:09;5.50;99.90
4615;DHT22;2320;51.362;6.946;2023-03-01T10:46:58;5.30;99.90
4615;DHT22;2320;51.362;6.946;2023-03-01T10:49:24;5.40;99.90
4615;DHT22;2320;51.362;6.946;2023-03-01T10:51:51;5.60;99.90
4615;DHT22;2320;51.362;6.946;2023-03-01T10:56:52;5.50;99.90
4615;DHT22;2320;51.362;6.946;2023-03-01T10:59:35;5.50;99.90
4615;DHT22;2320;51.362;6.946;2023-03-01T11:02:17;5.50;99.90
4615;DHT22;2320;51.362;6.946;2023-03-01T11:05:00;5.60;99.90
4615;DHT22;2320;51.362;6.946;2023-03-01T11:07:26;5.60;99.90
4615;DHT22;2320;51.362;6.946;2023-03-01T11:09:51;5.50;99.90
4615;DHT22;2320;51.362;6.946;2023-03-01T11:12:17;5.60;99.90
4615;DHT22;2320;51.362;6.946;2023-03-01T11:14:46;5.80;99.90
4615;DHT22;2320;51.362;6.946;2023-03-01T11:17:15;5.80;99.90
4615;DHT22;2320;51.362;6.946;2023-03-01T11:19:42;5.60;99.90
4615;DHT22;2320;51.362;6.946;2023-03-01T11:22:12;5.50;99.90
4615;DHT22;2320;51.362;6.946;2023-03-01T11:24:40;5.60;99.90
4615;DHT22;2320;51.362;6.946;2023-03-01T11:27:11;5.70;99.90
4615;DHT22;2320;51.362;6.946;2023-03-01T11:32:34;6.00;99.90
4615;DHT22;2320;51.362;6.946;2023-03-01T11:35:13;6.20;99.90
4615;DHT22;2320;51.362;6.946;2023-03-01T11:37:41;6.30;99.90
4615;DHT22;2320;51.362;6.946;2023-03-01T11:42:43;6.30;99.90
4615;DHT22;2320;51.362;6.946;2023-03-01T11:45:11;6.30;99.90
4615;DHT22;2320;51.362;6.946;2023-03-01T12:07:59;6.40;99.90
4615;DHT22;2320;51.362;6.946;2023-03-01T12:13:32;6.20;99.90
4615;DHT22;2320;51.362;6.946;2023-03-01T12:22:01;6.00;99.90
4615;DHT22;2320;51.362;6.946;2023-03-01T12:24:15;6.10;99.90
4615;DHT22;2320;51.362;6.946;2023-03-01T12:26:47;6.20;99.90
4615;DHT22;2320;51.362;6.946;2023-03-01T12:39:20;6.50;99.90
4615;DHT22;2320;51.362;6.946;2023-03-01T12:44:32;6.50;99.90
4615;DHT22;2320;51.362;6.946;2023-03-01T12:49:26;6.60;99.90
4615;DHT22;2320;51.362;6.946;2023-03-01T12:51:58;6.50;99.90
4615;DHT22;2320;51.362;6.946;2023-03-01T12:54:26;6.40;99.90
4615;DHT22;2320;51.362;6.946;2023-03-01T12:56:53;6.60;99.90
4615;DHT22;2320;51.362;6.946;2023-03-01T13:02:03;6.50;99.90
4615;DHT22;2320;51.362;6.946;2023-03-01T13:12:02;6.50;99.90
4615;DHT22;2320;51.362;6.946;2023-03-01T13:16:55;6.60;99.90
4615;DHT22;2320;51.362;6.946;2023-03-01T13:19:22;6.70;99.90
4615;DHT22;2320;51.362;6.946;2023-03-01T13:21:48;6.60;99.90
4615;DHT22;2320;51.362;6.946;2023-03-01T13:29:49;6.80;99.90
4615;DHT22;2320;51.362;6.946;2023-03-01T13:32:25;6.90;99.90
4615;DHT22;2320;51.362;6.946;2023-03-01T13:37:42;7.00;99.90
4615;DHT22;2320;51.362;6.946;2023-03-01T13:42:54;6.90;99.90
4615;DHT22;2320;51.362;6.946;2023-03-01T13:45:38;6.90;99.90
4615;DHT22;2320;51.362;6.946;2023-03-01T13:48:26;7.00;99.90
4615;DHT22;2320;51.362;6.946;2023-03-01T13:50:51;6.80;99.90
4615;DHT22;2320;51.362;6.946;2023-03-01T13:53:18;7.00;99.90
4615;DHT22;2320;51.362;6.946;2023-03-01T13:55:45;6.90;99.90
4615;DHT22;2320;51.362;6.946;2023-03-01T13:58:24;7.00;99.90
4615;DHT22;2320;51.362;6.946;2023-03-01T14:01:01;7.10;99.90
4615;DHT22;2320;51.362;6.946;2023-03-01T14:03:27;7.10;99.90
4615;DHT22;2320;51.362;6.946;2023-03-01T14:08:28;7.10;99.90
4615;DHT22;2320;51.362;6.946;2023-03-01T14:21:20;7.10;99.90
4615;DHT22;2320;51.362;6.946;2023-03-01T14:23:47;6.90;99.90
4615;DHT22;2320;51.362;6.946;2023-03-01T14:26:13;6.90;99.90
4615;DHT22;2320;51.362;6.946;2023-03-01T14:28:45;7.00;99.90
4615;DHT22;2320;51.362;6.946;2023-03-01T14:33:55;7.00;99.10
4615;DHT22;2320;51.362;6.946;2023-03-01T14:36:25;7.00;99.90
4615;DHT22;2320;51.362;6.946;2023-03-01T14:38:51;7.00;99.90
4615;DHT22;2320;51.362;6.946;2023-03-01T14:43:46;7.10;99.90
4615;DHT22;2320;51.362;6.946;2023-03-01T14:46:19;7.10;99.90
4615;DHT22;2320;51.362;6.946;2023-03-01T14:48:48;7.20;99.90
4615;DHT22;2320;51.362;6.946;2023-03-01T14:51:14;7.20;99.90
4615;DHT22;2320;51.362;6.946;2023-03-01T14:53:39;7.20;99.90
4615;DHT22;2320;51.362;6.946;2023-03-01T14:56:05;7.20;99.90
4615;DHT22;2320;51.362;6.946;2023-03-01T14:58:32;7.30;99.90
4615;DHT22;2320;51.362;6.946;2023-03-01T15:01:02;7.30;99.90
4615;DHT22;2320;51.362;6.946;2023-03-01T15:03:33;7.30;99.90
4615;DHT22;2320;51.362;6.946;2023-03-01T15:06:02;7.20;99.90
4615;DHT22;2320;51.362;6.946;2023-03-01T15:08:28;7.10;99.90
4615;DHT22;2320;51.362;6.946;2023-03-01T15:11:01;7.10;99.90
4615;DHT22;2320;51.362;6.946;2023-03-01T15:13:32;7.10;99.90
4615;DHT22;2320;51.362;6.946;2023-03-01T15:16:07;7.10;99.90
4615;DHT22;2320;51.362;6.946;2023-03-01T15:18:34;7.20;99.90
4615;DHT22;2320;51.362;6.946;2023-03-01T15:21:07;7.20;99.90
4615;DHT22;2320;51.362;6.946;2023-03-01T15:23:33;7.20;99.90
4615;DHT22;2320;51.362;6.946;2023-03-01T15:25:59;7.20;99.90
4615;DHT22;2320;51.362;6.946;2023-03-01T15:28:26;7.30;99.90
4615;DHT22;2320;51.362;6.946;2023-03-01T15:31:18;7.20;99.90
4615;DHT22;2320;51.362;6.946;2023-03-01T15:33:44;7.10;98.40
4615;DHT22;2320;51.362;6.946;2023-03-01T15:36:32;7.10;97.20
4615;DHT22;2320;51.362;6.946;2023-03-01T15:38:59;7.10;97.70
4615;DHT22;2320;51.362;6.946;2023-03-01T15:41:26;7.00;97.90
4615;DHT22;2320;51.362;6.946;2023-03-01T15:43:52;7.10;98.60
4615;DHT22;2320;51.362;6.946;2023-03-01T15:46:30;7.10;98.90
4615;DHT22;2320;51.362;6.946;2023-03-01T15:48:59;7.10;98.00
4615;DHT22;2320;51.362;6.946;2023-03-01T15:51:31;7.00;98.60
4615;DHT22;2320;51.362;6.946;2023-03-01T15:53:58;6.90;98.80
4615;DHT22;2320;51.362;6.946;2023-03-01T15:56:23;6.90;99.50
4615;DHT22;2320;51.362;6.946;2023-03-01T15:58:49;6.90;99.90
4615;DHT22;2320;51.362;6.946;2023-03-01T16:01:15;7.00;99.90
4615;DHT22;2320;51.362;6.946;2023-03-01T16:03:42;7.00;99.90
4615;DHT22;2320;51.362;6.946;2023-03-01T16:06:10;7.00;99.60
4615;DHT22;2320;51.362;6.946;2023-03-01T16:08:37;6.90;99.80
4615;DHT22;2320;51.362;6.946;2023-03-01T16:11:03;6.90;99.90
4615;DHT22;2320;51.362;6.946;2023-03-01T16:13:31;6.80;99.70
4615;DHT22;2320;51.362;6.946;2023-03-01T16:15:57;6.80;99.80
4615;DHT22;2320;51.362;6.946;2023-03-01T16:18:22;6.70;99.90
4615;DHT22;2320;51.362;6.946;2023-03-01T16:20:48;6.70;99.60
4615;DHT22;2320;51.362;6.946;2023-03-01T16:23:14;6.70;99.90
4615;DHT22;2320;51.362;6.946;2023-03-01T16:25:40;6.80;99.90
4615;DHT22;2320;51.362;6.946;2023-03-01T16:28:05;6.70;99.90
4615;DHT22;2320;51.362;6.946;2023-03-01T16:30:34;6.80;99.90
4615;DHT22;2320;51.362;6.946;2023-03-01T16:33:00;6.70;99.90
4615;DHT22;2320;51.362;6.946;2023-03-01T16:35:26;6.70;99.90
4615;DHT22;2320;51.362;6.946;2023-03-01T16:37:51;6.70;99.90
4615;DHT22;2320;51.362;6.946;2023-03-01T16:40:23;6.50;99.90
4615;DHT22;2320;51.362;6.946;2023-03-01T16:42:49;6.50;99.90
4615;DHT22;2320;51.362;6.946;2023-03-01T16:45:15;6.40;99.90
4615;DHT22;2320;51.362;6.946;2023-03-01T16:47:41;6.40;99.90
4615;DHT22;2320;51.362;6.946;2023-03-01T16:50:06;6.40;99.90
4615;DHT22;2320;51.362;6.946;2023-03-01T16:52:33;6.30;99.90
4615;DHT22;2320;51.362;6.946;2023-03-01T16:54:58;6.30;99.90
4615;DHT22;2320;51.362;6.946;2023-03-01T16:57:24;6.20;99.90
4615;DHT22;2320;51.362;6.946;2023-03-01T16:59:52;6.20;99.90
4615;DHT22;2320;51.362;6.946;2023-03-01T17:02:18;6.10;99.90
4615;DHT22;2320;51.362;6.946;2023-03-01T17:04:45;6.10;99.90
4615;DHT22;2320;51.362;6.946;2023-03-01T17:07:10;6.10;99.90
4615;DHT22;2320;51.362;6.946;2023-03-01T17:09:36;6.00;99.90
4615;DHT22;2320;51.362;6.946;2023-03-01T17:12:02;6.00;99.90
4615;DHT22;2320;51.362;6.946;2023-03-01T17:14:28;6.00;99.90
4615;DHT22;2320;51.362;6.946;2023-03-01T17:16:54;5.90;99.90
4615;DHT22;2320;51.362;6.946;2023-03-01T17:19:19;5.80;99.90
4615;DHT22;2320;51.362;6.946;2023-03-01T17:21:45;5.80;99.90
4615;DHT22;2320;51.362;6.946;2023-03-01T17:24:10;5.80;99.90
4615;DHT22;2320;51.362;6.946;2023-03-01T17:26:37;5.80;99.90
4615;DHT22;2320;51.362;6.946;2023-03-01T17:29:03;5.70;99.90
4615;DHT22;2320;51.362;6.946;2023-03-01T17:31:30;5.40;99.90
4615;DHT22;2320;51.362;6.946;2023-03-01T17:33:55;5.40;99.90
4615;DHT22;2320;51.362;6.946;2023-03-01T17:36:21;5.40;99.90
4615;DHT22;2320;51.362;6.946;2023-03-01T17:38:47;5.30;99.90
4615;DHT22;2320;51.362;6.946;2023-03-01T17:41:13;5.30;99.90
4615;DHT22;2320;51.362;6.946;2023-03-01T17:43:42;5.30;99.90
4615;DHT22;2320;51.362;6.946;2023-03-01T17:46:07;5.20;99.90
4615;DHT22;2320;51.362;6.946;2023-03-01T17:48:33;5.10;99.90
4615;DHT22;2320;51.362;6.946;2023-03-01T17:50:59;5.10;99.90
4615;DHT22;2320;51.362;6.946;2023-03-01T17:53:24;5.00;99.90
4615;DHT22;2320;51.362;6.946;2023-03-01T17:55:57;4.90;99.90
4615;DHT22;2320;51.362;6.946;2023-03-01T17:58:23;4.90;99.90
4615;DHT22;2320;51.362;6.946;2023-03-01T18:00:48;4.90;99.90